sensor_id;sensor_type;location;lat;lon;timestamp;P1;durP1;ratioP1;P2;durP2;ratioP2
13868;SDS011;7004;48.206;16.402;2022-12-29T00:02:13;21.33;;;13.27;;
13868;SDS011;7004;48.206;16.402;2022-12-29T00:04:39;18.27;;;12.67;;
13868;SDS011;7004;48.206;16.402;2022-12-29T00:07:05;19.23;;;13.47;;
13868;SDS011;7004;48.206;16.402;2022-12-29T00:09:32;20.17;;;14.13;;
13868;SDS011;7004;48.206;16.402;2022-12-29T00:11:59;17.97;;;13.07;;
13868;SDS011;7004;48.206;16.402;2022-12-29T00:14:28;19.63;;;12.80;;
13868;SDS011;7004;48.206;16.402;2022-12-29T00:17:13;19.13;;;12.60;;
13868;SDS011;7004;48.206;16.402;2022-12-29T00:19:39;18.23;;;12.20;;
13868;SDS011;7004;48.206;16.402;2022-12-29T00:22:24;18.90;;;11.97;;
13868;SDS011;7004;48.206;16.402;2022-12-29T00:25:10;20.27;;;12.60;;
13868;SDS011;7004;48.206;16.402;2022-12-29T00:27:57;18.50;;;12.33;;
13868;SDS011;7004;48.206;16.402;2022-12-29T00:30:42;16.83;;;11.93;;
13868;SDS011;7004;48.206;16.402;2022-12-29T00:33:30;21.43;;;12.17;;
13868;SDS011;7004;48.206;16.402;2022-12-29T00:36:18;20.07;;;12.30;;
13868;SDS011;7004;48.206;16.402;2022-12-29T00:39:05;18.93;;;11.43;;
13868;SDS011;7004;48.206;16.402;2022-12-29T00:42:02;19.07;;;11.90;;
13868;SDS011;7004;48.206;16.402;2022-12-29T00:44:51;19.63;;;11.57;;
13868;SDS011;7004;48.206;16.402;2022-12-29T00:47:17;20.87;;;12.13;;
13868;SDS011;7004;48.206;16.402;2022-12-29T00:49:43;20.00;;;12.27;;
13868;SDS011;7004;48.206;16.402;2022-12-29T00:52:11;18.97;;;11.83;;
13868;SDS011;7004;48.206;16.402;2022-12-29T00:54:39;17.30;;;11.30;;
13868;SDS011;7004;48.206;16.402;2022-12-29T00:57:07;18.03;;;12.03;;
13868;SDS011;7004;48.206;16.402;2022-12-29T00:59:38;18.97;;;12.10;;
13868;SDS011;7004;48.206;16.402;2022-12-29T01:02:06;17.13;;;11.87;;
13868;SDS011;7004;48.206;16.402;2022-12-29T01:04:33;18.77;;;12.63;;
13868;SDS011;7004;48.206;16.402;2022-12-29T01:07:00;17.80;;;11.90;;
13868;SDS011;7004;48.206;16.402;2022-12-29T01:09:26;16.73;;;11.87;;
13868;SDS011;7004;48.206;16.402;2022-12-29T01:12:11;21.50;;;13.27;;
13868;SDS011;7004;48.206;16.402;2022-12-29T01:14:38;17.53;;;12.10;;
13868;SDS011;7004;48.206;16.402;2022-12-29T01:17:04;18.23;;;11.97;;
13868;SDS011;7004;48.206;16.402;2022-12-29T01:19:31;18.30;;;12.17;;
13868;SDS011;7004;48.206;16.402;2022-12-29T01:21:57;22.23;;;12.73;;
13868;SDS011;7004;48.206;16.402;2022-12-29T01:24:23;20.13;;;12.47;;
13868;SDS011;7004;48.206;16.402;2022-12-29T01:26:51;19.47;;;12.43;;
13868;SDS011;7004;48.206;16.402;2022-12-29T01:29:17;18.30;;;12.47;;
13868;SDS011;7004;48.206;16.402;2022-12-29T01:31:43;18.53;;;12.03;;
13868;SDS011;7004;48.206;16.402;2022-12-29T01:34:09;18.63;;;12.57;;
13868;SDS011;7004;48.206;16.402;2022-12-29T01:36:35;22.60;;;12.33;;
13868;SDS011;7004;48.206;16.402;2022-12-29T01:39:02;18.70;;;11.87;;
13868;SDS011;7004;48.206;16.402;2022-12-29T01:41:28;17.57;;;12.50;;
13868;SDS011;7004;48.206;16.402;2022-12-29T01:43:55;19.97;;;13.23;;
13868;SDS011;7004;48.206;16.402;2022-12-29T01:46:30;19.27;;;12.60;;
13868;SDS011;7004;48.206;16.402;2022-12-29T01:51:38;18.97;;;13.50;;
13868;SDS011;7004;48.206;16.402;2022-12-29T01:54:19;19.23;;;13.10;;
13868;SDS011;7004;48.206;16.402;2022-12-29T01:56:59;19.37;;;12.63;;
13868;SDS011;7004;48.206;16.402;2022-12-29T01:59:34;18.97;;;12.50;;
13868;SDS011;7004;48.206;16.402;2022-12-29T02:02:08;19.47;;;13.03;;
13868;SDS011;7004;48.206;16.402;2022-12-29T02:04:35;19.57;;;13.03;;
13868;SDS011;7004;48.206;16.402;2022-12-29T02:07:11;20.27;;;13.90;;
13868;SDS011;7004;48.206;16.402;2022-12-29T02:09:46;18.53;;;12.87;;
13868;SDS011;7004;48.206;16.402;2022-12-29T02:12:15;22.97;;;13.43;;
13868;SDS011;7004;48.206;16.402;2022-12-29T02:14:44;17.93;;;12.03;;
13868;SDS011;7004;48.206;16.402;2022-12-29T02:20:22;18.17;;;12.93;;
13868;SDS011;7004;48.206;16.402;2022-12-29T02:26:26;18.83;;;12.30;;
13868;SDS011;7004;48.206;16.402;2022-12-29T02:32:12;19.67;;;12.60;;
13868;SDS011;7004;48.206;16.402;2022-12-29T02:35:14;18.50;;;12.10;;
13868;SDS011;7004;48.206;16.402;2022-12-29T02:38:25;20.03;;;12.80;;
13868;SDS011;7004;48.206;16.402;2022-12-29T02:44:11;23.07;;;13.23;;
13868;SDS011;7004;48.206;16.402;2022-12-29T02:46:54;19.47;;;12.53;;
13868;SDS011;7004;48.206;16.402;2022-12-29T02:49:48;20.93;;;12.50;;
13868;SDS011;7004;48.206;16.402;2022-12-29T02:52:41;20.47;;;12.77;;
13868;SDS011;7004;48.206;16.402;2022-12-29T02:55:17;20.03;;;11.87;;
13868;SDS011;7004;48.206;16.402;2022-12-29T02:57:44;18.93;;;12.30;;
13868;SDS011;7004;48.206;16.402;2022-12-29T03:00:11;18.13;;;12.23;;
13868;SDS011;7004;48.206;16.402;2022-12-29T03:05:22;18.73;;;12.33;;
13868;SDS011;7004;48.206;16.402;2022-12-29T03:08:34;15.50;;;11.17;;
13868;SDS011;7004;48.206;16.402;2022-12-29T03:11:09;18.93;;;12.20;;
13868;SDS011;7004;48.206;16.402;2022-12-29T03:14:06;18.33;;;11.27;;
13868;SDS011;7004;48.206;16.402;2022-12-29T03:16:55;16.27;;;11.33;;
13868;SDS011;7004;48.206;16.402;2022-12-29T03:19:37;24.93;;;12.47;;
13868;SDS011;7004;48.206;16.402;2022-12-29T03:22:12;20.23;;;11.70;;
13868;SDS011;7004;48.206;16.402;2022-12-29T03:27:44;19.47;;;12.70;;
13868;SDS011;7004;48.206;16.402;2022-12-29T03:30:17;17.80;;;12.67;;
13868;SDS011;7004;48.206;16.402;2022-12-29T03:32:46;19.47;;;13.17;;
13868;SDS011;7004;48.206;16.402;2022-12-29T03:35:17;17.20;;;11.50;;
13868;SDS011;7004;48.206;16.402;2022-12-29T03:40:41;18.00;;;11.93;;
13868;SDS011;7004;48.206;16.402;2022-12-29T03:43:12;18.43;;;12.33;;
13868;SDS011;7004;48.206;16.402;2022-12-29T03:45:40;19.37;;;12.40;;
13868;SDS011;7004;48.206;16.402;2022-12-29T03:48:07;18.07;;;12.53;;
13868;SDS011;7004;48.206;16.402;2022-12-29T03:50:33;18.17;;;12.10;;
13868;SDS011;7004;48.206;16.402;2022-12-29T03:52:59;19.20;;;13.10;;
13868;SDS011;7004;48.206;16.402;2022-12-29T03:55:25;21.17;;;13.27;;
13868;SDS011;7004;48.206;16.402;2022-12-29T03:57:52;17.90;;;12.60;;
13868;SDS011;7004;48.206;16.402;2022-12-29T04:00:18;20.57;;;12.63;;
13868;SDS011;7004;48.206;16.402;2022-12-29T04:02:44;16.83;;;12.10;;
13868;SDS011;7004;48.206;16.402;2022-12-29T04:05:10;15.90;;;11.77;;
13868;SDS011;7004;48.206;16.402;2022-12-29T04:07:36;18.83;;;12.23;;
13868;SDS011;7004;48.206;16.402;2022-12-29T04:10:04;21.10;;;12.50;;
13868;SDS011;7004;48.206;16.402;2022-12-29T04:12:30;18.00;;;12.67;;
13868;SDS011;7004;48.206;16.402;2022-12-29T04:14:56;15.37;;;11.00;;
13868;SDS011;7004;48.206;16.402;2022-12-29T04:17:22;17.43;;;12.00;;
13868;SDS011;7004;48.206;16.402;2022-12-29T04:19:49;18.97;;;12.47;;
13868;SDS011;7004;48.206;16.402;2022-12-29T04:22:15;18.50;;;12.43;;
13868;SDS011;7004;48.206;16.402;2022-12-29T04:24:41;18.47;;;12.57;;
13868;SDS011;7004;48.206;16.402;2022-12-29T04:27:07;18.57;;;12.03;;
13868;SDS011;7004;48.206;16.402;2022-12-29T04:29:33;19.67;;;11.87;;
13868;SDS011;7004;48.206;16.402;2022-12-29T04:31:59;19.53;;;12.97;;
13868;SDS011;7004;48.206;16.402;2022-12-29T04:34:25;18.17;;;12.17;;
13868;SDS011;7004;48.206;16.402;2022-12-29T04:36:51;21.43;;;12.87;;
13868;SDS011;7004;48.206;16.402;2022-12-29T04:39:18;16.40;;;12.03;;
13868;SDS011;7004;48.206;16.402;2022-12-29T04:41:44;16.47;;;12.23;;
13868;SDS011;7004;48.206;16.402;2022-12-29T04:44:10;19.30;;;12.00;;
13868;SDS011;7004;48.206;16.402;2022-12-29T04:46:36;21.80;;;12.93;;
13868;SDS011;7004;48.206;16.402;2022-12-29T04:49:02;19.70;;;12.50;;
13868;SDS011;7004;48.206;16.402;2022-12-29T04:51:33;22.47;;;12.47;;
13868;SDS011;7004;48.206;16.402;2022-12-29T04:54:00;18.47;;;11.93;;
13868;SDS011;7004;48.206;16.402;2022-12-29T04:56:26;22.23;;;13.20;;
13868;SDS011;7004;48.206;16.402;2022-12-29T04:58:52;19.83;;;12.07;;
13868;SDS011;7004;48.206;16.402;2022-12-29T05:01:18;17.23;;;12.43;;
13868;SDS011;7004;48.206;16.402;2022-12-29T05:03:44;21.47;;;11.63;;
13868;SDS011;7004;48.206;16.402;2022-12-29T05:06:10;19.30;;;12.13;;
13868;SDS011;7004;48.206;16.402;2022-12-29T05:08:36;17.27;;;11.87;;
13868;SDS011;7004;48.206;16.402;2022-12-29T05:11:02;17.63;;;12.30;;
13868;SDS011;7004;48.206;16.402;2022-12-29T05:13:29;17.37;;;12.03;;
13868;SDS011;7004;48.206;16.402;2022-12-29T05:15:55;19.40;;;12.23;;
13868;SDS011;7004;48.206;16.402;2022-12-29T05:18:21;20.37;;;12.83;;
13868;SDS011;7004;48.206;16.402;2022-12-29T05:20:47;20.17;;;12.90;;
13868;SDS011;7004;48.206;16.402;2022-12-29T05:23:13;17.77;;;11.77;;
13868;SDS011;7004;48.206;16.402;2022-12-29T05:25:40;18.60;;;12.07;;
13868;SDS011;7004;48.206;16.402;2022-12-29T05:28:08;17.37;;;12.60;;
13868;SDS011;7004;48.206;16.402;2022-12-29T05:30:34;19.70;;;12.93;;
13868;SDS011;7004;48.206;16.402;2022-12-29T05:33:00;21.67;;;12.53;;
13868;SDS011;7004;48.206;16.402;2022-12-29T05:35:26;19.60;;;11.73;;
13868;SDS011;7004;48.206;16.402;2022-12-29T05:37:53;21.57;;;12.83;;
13868;SDS011;7004;48.206;16.402;2022-12-29T05:40:19;19.83;;;12.27;;
13868;SDS011;7004;48.206;16.402;2022-12-29T05:42:46;18.07;;;12.43;;
13868;SDS011;7004;48.206;16.402;2022-12-29T05:45:12;17.77;;;12.10;;
13868;SDS011;7004;48.206;16.402;2022-12-29T05:47:38;18.50;;;12.00;;
13868;SDS011;7004;48.206;16.402;2022-12-29T05:50:04;16.53;;;12.10;;
13868;SDS011;7004;48.206;16.402;2022-12-29T05:52:31;19.37;;;13.17;;
13868;SDS011;7004;48.206;16.402;2022-12-29T05:54:57;21.27;;;13.10;;
13868;SDS011;7004;48.206;16.402;2022-12-29T05:57:23;19.57;;;12.73;;
13868;SDS011;7004;48.206;16.402;2022-12-29T05:59:49;20.67;;;12.87;;
13868;SDS011;7004;48.206;16.402;2022-12-29T06:02:15;18.20;;;12.53;;
13868;SDS011;7004;48.206;16.402;2022-12-29T06:04:41;20.07;;;13.23;;
13868;SDS011;7004;48.206;16.402;2022-12-29T06:07:07;22.83;;;14.37;;
13868;SDS011;7004;48.206;16.402;2022-12-29T06:09:33;19.27;;;13.07;;
13868;SDS011;7004;48.206;16.402;2022-12-29T06:11:59;21.93;;;13.47;;
13868;SDS011;7004;48.206;16.402;2022-12-29T06:14:25;21.33;;;14.43;;
13868;SDS011;7004;48.206;16.402;2022-12-29T06:16:52;19.53;;;14.13;;
13868;SDS011;7004;48.206;16.402;2022-12-29T06:19:18;21.47;;;14.40;;
13868;SDS011;7004;48.206;16.402;2022-12-29T06:21:44;29.93;;;16.77;;
13868;SDS011;7004;48.206;16.402;2022-12-29T06:24:10;26.13;;;16.37;;
13868;SDS011;7004;48.206;16.402;2022-12-29T06:26:36;25.23;;;17.10;;
13868;SDS011;7004;48.206;16.402;2022-12-29T06:29:02;29.17;;;17.30;;
13868;SDS011;7004;48.206;16.402;2022-12-29T06:31:28;29.30;;;19.07;;
13868;SDS011;7004;48.206;16.402;2022-12-29T06:33:54;31.33;;;19.97;;
13868;SDS011;7004;48.206;16.402;2022-12-29T06:36:20;31.37;;;19.87;;
13868;SDS011;7004;48.206;16.402;2022-12-29T06:38:46;30.27;;;18.97;;
13868;SDS011;7004;48.206;16.402;2022-12-29T06:41:12;31.77;;;19.17;;
13868;SDS011;7004;48.206;16.402;2022-12-29T06:43:39;38.80;;;20.97;;
13868;SDS011;7004;48.206;16.402;2022-12-29T06:46:05;36.90;;;19.97;;
13868;SDS011;7004;48.206;16.402;2022-12-29T06:48:31;34.13;;;20.03;;
13868;SDS011;7004;48.206;16.402;2022-12-29T06:50:57;37.53;;;18.97;;
13868;SDS011;7004;48.206;16.402;2022-12-29T06:53:23;34.30;;;19.13;;
13868;SDS011;7004;48.206;16.402;2022-12-29T06:55:49;32.53;;;18.97;;
13868;SDS011;7004;48.206;16.402;2022-12-29T06:58:15;37.17;;;19.73;;
13868;SDS011;7004;48.206;16.402;2022-12-29T07:00:42;37.00;;;20.80;;
13868;SDS011;7004;48.206;16.402;2022-12-29T07:03:08;39.80;;;19.30;;
13868;SDS011;7004;48.206;16.402;2022-12-29T07:05:34;37.23;;;21.47;;
13868;SDS011;7004;48.206;16.402;2022-12-29T07:08:00;38.03;;;21.27;;
13868;SDS011;7004;48.206;16.402;2022-12-29T07:10:27;35.80;;;21.37;;
13868;SDS011;7004;48.206;16.402;2022-12-29T07:12:53;35.43;;;20.40;;
13868;SDS011;7004;48.206;16.402;2022-12-29T07:15:19;36.13;;;21.27;;
13868;SDS011;7004;48.206;16.402;2022-12-29T07:17:46;37.37;;;21.27;;
13868;SDS011;7004;48.206;16.402;2022-12-29T07:20:12;38.97;;;22.23;;
13868;SDS011;7004;48.206;16.402;2022-12-29T07:22:38;36.73;;;20.30;;
13868;SDS011;7004;48.206;16.402;2022-12-29T07:25:04;38.00;;;22.43;;
13868;SDS011;7004;48.206;16.402;2022-12-29T07:27:30;36.93;;;20.90;;
13868;SDS011;7004;48.206;16.402;2022-12-29T07:29:57;42.63;;;22.90;;
13868;SDS011;7004;48.206;16.402;2022-12-29T07:32:24;42.53;;;21.80;;
13868;SDS011;7004;48.206;16.402;2022-12-29T07:34:50;38.40;;;21.73;;
13868;SDS011;7004;48.206;16.402;2022-12-29T07:37:16;40.67;;;21.83;;
13868;SDS011;7004;48.206;16.402;2022-12-29T07:39:43;36.97;;;20.73;;
13868;SDS011;7004;48.206;16.402;2022-12-29T07:42:09;38.47;;;22.47;;
13868;SDS011;7004;48.206;16.402;2022-12-29T07:44:35;36.13;;;21.73;;
13868;SDS011;7004;48.206;16.402;2022-12-29T07:47:02;35.30;;;21.60;;
13868;SDS011;7004;48.206;16.402;2022-12-29T07:49:29;41.27;;;23.03;;
13868;SDS011;7004;48.206;16.402;2022-12-29T07:51:55;41.13;;;23.27;;
13868;SDS011;7004;48.206;16.402;2022-12-29T07:54:21;38.93;;;22.37;;
13868;SDS011;7004;48.206;16.402;2022-12-29T07:56:48;41.90;;;22.60;;
13868;SDS011;7004;48.206;16.402;2022-12-29T07:59:14;39.80;;;23.10;;
13868;SDS011;7004;48.206;16.402;2022-12-29T08:01:40;38.90;;;21.47;;
13868;SDS011;7004;48.206;16.402;2022-12-29T08:04:07;40.73;;;22.50;;
13868;SDS011;7004;48.206;16.402;2022-12-29T08:06:33;47.93;;;23.77;;
13868;SDS011;7004;48.206;16.402;2022-12-29T08:08:59;45.00;;;24.17;;
13868;SDS011;7004;48.206;16.402;2022-12-29T08:11:27;42.27;;;23.33;;
13868;SDS011;7004;48.206;16.402;2022-12-29T08:13:53;42.67;;;22.47;;
13868;SDS011;7004;48.206;16.402;2022-12-29T08:16:19;45.30;;;24.47;;
13868;SDS011;7004;48.206;16.402;2022-12-29T08:18:45;40.77;;;22.63;;
13868;SDS011;7004;48.206;16.402;2022-12-29T08:21:11;45.13;;;24.90;;
13868;SDS011;7004;48.206;16.402;2022-12-29T08:23:37;47.60;;;23.87;;
13868;SDS011;7004;48.206;16.402;2022-12-29T08:26:04;44.80;;;23.07;;
13868;SDS011;7004;48.206;16.402;2022-12-29T08:28:31;45.13;;;22.10;;
13868;SDS011;7004;48.206;16.402;2022-12-29T08:30:59;46.23;;;23.73;;
13868;SDS011;7004;48.206;16.402;2022-12-29T08:33:27;44.87;;;22.73;;
13868;SDS011;7004;48.206;16.402;2022-12-29T08:35:58;40.20;;;22.30;;
13868;SDS011;7004;48.206;16.402;2022-12-29T08:38:29;42.70;;;22.47;;
13868;SDS011;7004;48.206;16.402;2022-12-29T08:40:56;39.57;;;22.07;;
13868;SDS011;7004;48.206;16.402;2022-12-29T08:43:23;42.43;;;20.67;;
13868;SDS011;7004;48.206;16.402;2022-12-29T08:45:50;60.87;;;20.83;;
13868;SDS011;7004;48.206;16.402;2022-12-29T08:48:16;48.17;;;20.60;;
13868;SDS011;7004;48.206;16.402;2022-12-29T08:50:45;36.27;;;19.47;;
13868;SDS011;7004;48.206;16.402;2022-12-29T08:53:12;34.63;;;20.00;;
13868;SDS011;7004;48.206;16.402;2022-12-29T08:55:38;43.43;;;21.50;;
13868;SDS011;7004;48.206;16.402;2022-12-29T08:58:04;42.67;;;22.27;;
13868;SDS011;7004;48.206;16.402;2022-12-29T09:00:30;54.63;;;24.77;;
13868;SDS011;7004;48.206;16.402;2022-12-29T09:02:56;43.47;;;22.27;;
13868;SDS011;7004;48.206;16.402;2022-12-29T09:05:22;55.83;;;21.87;;
13868;SDS011;7004;48.206;16.402;2022-12-29T09:07:49;43.30;;;23.00;;
13868;SDS011;7004;48.206;16.402;2022-12-29T09:10:15;46.13;;;23.63;;
13868;SDS011;7004;48.206;16.402;2022-12-29T09:12:41;45.23;;;23.23;;
13868;SDS011;7004;48.206;16.402;2022-12-29T09:15:07;42.70;;;22.27;;
13868;SDS011;7004;48.206;16.402;2022-12-29T09:17:35;61.10;;;25.70;;
13868;SDS011;7004;48.206;16.402;2022-12-29T09:20:20;70.80;;;25.80;;
13868;SDS011;7004;48.206;16.402;2022-12-29T09:22:47;77.53;;;24.60;;
13868;SDS011;7004;48.206;16.402;2022-12-29T09:25:13;43.50;;;23.30;;
13868;SDS011;7004;48.206;16.402;2022-12-29T09:27:40;49.17;;;24.93;;
13868;SDS011;7004;48.206;16.402;2022-12-29T09:30:08;49.73;;;24.00;;
13868;SDS011;7004;48.206;16.402;2022-12-29T09:32:37;54.43;;;24.63;;
13868;SDS011;7004;48.206;16.402;2022-12-29T09:35:04;50.70;;;24.40;;
13868;SDS011;7004;48.206;16.402;2022-12-29T09:37:30;44.63;;;23.97;;
13868;SDS011;7004;48.206;16.402;2022-12-29T09:39:56;54.37;;;23.93;;
13868;SDS011;7004;48.206;16.402;2022-12-29T09:45:12;68.07;;;26.97;;
13868;SDS011;7004;48.206;16.402;2022-12-29T09:47:43;60.13;;;27.53;;
13868;SDS011;7004;48.206;16.402;2022-12-29T09:55:55;51.90;;;25.80;;
13868;SDS011;7004;48.206;16.402;2022-12-29T10:01:22;54.83;;;26.53;;
13868;SDS011;7004;48.206;16.402;2022-12-29T10:03:59;54.53;;;25.13;;
13868;SDS011;7004;48.206;16.402;2022-12-29T10:09:13;49.07;;;25.63;;
13868;SDS011;7004;48.206;16.402;2022-12-29T10:12:02;53.10;;;26.73;;
13868;SDS011;7004;48.206;16.402;2022-12-29T10:15:04;51.77;;;26.70;;
13868;SDS011;7004;48.206;16.402;2022-12-29T10:17:44;59.07;;;27.97;;
13868;SDS011;7004;48.206;16.402;2022-12-29T10:20:27;56.30;;;26.70;;
13868;SDS011;7004;48.206;16.402;2022-12-29T10:26:16;55.57;;;27.00;;
13868;SDS011;7004;48.206;16.402;2022-12-29T10:28:53;52.97;;;28.63;;
13868;SDS011;7004;48.206;16.402;2022-12-29T10:31:37;51.07;;;25.80;;
13868;SDS011;7004;48.206;16.402;2022-12-29T10:34:16;51.00;;;27.20;;
13868;SDS011;7004;48.206;16.402;2022-12-29T10:36:54;56.23;;;28.33;;
13868;SDS011;7004;48.206;16.402;2022-12-29T10:39:58;57.87;;;28.93;;
13868;SDS011;7004;48.206;16.402;2022-12-29T10:45:11;50.57;;;28.67;;
13868;SDS011;7004;48.206;16.402;2022-12-29T10:47:50;52.97;;;28.17;;
13868;SDS011;7004;48.206;16.402;2022-12-29T10:50:44;56.97;;;27.63;;
13868;SDS011;7004;48.206;16.402;2022-12-29T10:53:12;59.73;;;29.50;;
13868;SDS011;7004;48.206;16.402;2022-12-29T10:55:49;50.87;;;26.30;;
13868;SDS011;7004;48.206;16.402;2022-12-29T10:58:16;55.73;;;28.87;;
13868;SDS011;7004;48.206;16.402;2022-12-29T11:00:47;50.37;;;28.37;;
13868;SDS011;7004;48.206;16.402;2022-12-29T11:03:31;49.00;;;27.53;;
13868;SDS011;7004;48.206;16.402;2022-12-29T11:06:24;45.67;;;26.27;;
13868;SDS011;7004;48.206;16.402;2022-12-29T11:08:55;46.87;;;28.17;;
13868;SDS011;7004;48.206;16.402;2022-12-29T11:11:38;49.30;;;25.70;;
13868;SDS011;7004;48.206;16.402;2022-12-29T11:16:40;41.60;;;25.10;;
13868;SDS011;7004;48.206;16.402;2022-12-29T11:19:31;40.67;;;24.50;;
13868;SDS011;7004;48.206;16.402;2022-12-29T11:24:54;48.10;;;28.53;;
13868;SDS011;7004;48.206;16.402;2022-12-29T11:27:30;46.93;;;26.13;;
13868;SDS011;7004;48.206;16.402;2022-12-29T11:29:58;48.17;;;26.73;;
13868;SDS011;7004;48.206;16.402;2022-12-29T11:32:25;48.43;;;29.23;;
13868;SDS011;7004;48.206;16.402;2022-12-29T11:34:58;55.17;;;29.97;;
13868;SDS011;7004;48.206;16.402;2022-12-29T11:37:27;50.47;;;29.03;;
13868;SDS011;7004;48.206;16.402;2022-12-29T11:40:06;56.30;;;29.10;;
13868;SDS011;7004;48.206;16.402;2022-12-29T11:45:30;57.93;;;29.63;;
13868;SDS011;7004;48.206;16.402;2022-12-29T11:48:07;54.77;;;30.03;;
13868;SDS011;7004;48.206;16.402;2022-12-29T11:50:39;52.67;;;30.33;;
13868;SDS011;7004;48.206;16.402;2022-12-29T11:53:17;53.03;;;31.50;;
13868;SDS011;7004;48.206;16.402;2022-12-29T11:55:59;54.33;;;30.07;;
13868;SDS011;7004;48.206;16.402;2022-12-29T11:58:30;57.23;;;30.27;;
13868;SDS011;7004;48.206;16.402;2022-12-29T12:01:19;52.13;;;29.73;;
13868;SDS011;7004;48.206;16.402;2022-12-29T12:04:15;56.57;;;30.43;;
13868;SDS011;7004;48.206;16.402;2022-12-29T12:07:28;50.53;;;28.97;;
13868;SDS011;7004;48.206;16.402;2022-12-29T12:09:43;54.77;;;29.97;;
13868;SDS011;7004;48.206;16.402;2022-12-29T12:12:24;54.37;;;29.47;;
13868;SDS011;7004;48.206;16.402;2022-12-29T12:15:22;55.07;;;29.90;;
13868;SDS011;7004;48.206;16.402;2022-12-29T12:21:04;53.03;;;28.83;;
13868;SDS011;7004;48.206;16.402;2022-12-29T12:26:15;50.60;;;29.53;;
13868;SDS011;7004;48.206;16.402;2022-12-29T12:29:12;55.83;;;29.23;;
13868;SDS011;7004;48.206;16.402;2022-12-29T12:31:48;54.00;;;30.47;;
13868;SDS011;7004;48.206;16.402;2022-12-29T12:48:42;46.53;;;28.43;;
13868;SDS011;7004;48.206;16.402;2022-12-29T12:51:50;49.60;;;28.37;;
13868;SDS011;7004;48.206;16.402;2022-12-29T12:58:36;49.57;;;27.37;;
13868;SDS011;7004;48.206;16.402;2022-12-29T13:06:54;47.33;;;27.80;;
13868;SDS011;7004;48.206;16.402;2022-12-29T13:26:33;48.43;;;28.63;;
13868;SDS011;7004;48.206;16.402;2022-12-29T13:34:36;46.57;;;28.80;;
13868;SDS011;7004;48.206;16.402;2022-12-29T13:37:31;46.67;;;27.80;;
13868;SDS011;7004;48.206;16.402;2022-12-29T13:40:02;52.70;;;29.13;;
13868;SDS011;7004;48.206;16.402;2022-12-29T13:42:39;43.83;;;27.37;;
13868;SDS011;7004;48.206;16.402;2022-12-29T13:45:12;45.87;;;27.90;;
13868;SDS011;7004;48.206;16.402;2022-12-29T13:50:27;49.03;;;28.27;;
13868;SDS011;7004;48.206;16.402;2022-12-29T13:53:05;44.90;;;27.70;;
13868;SDS011;7004;48.206;16.402;2022-12-29T13:56:03;46.33;;;27.70;;
13868;SDS011;7004;48.206;16.402;2022-12-29T14:03:12;50.80;;;27.97;;
13868;SDS011;7004;48.206;16.402;2022-12-29T14:05:31;44.23;;;28.03;;
13868;SDS011;7004;48.206;16.402;2022-12-29T14:08:02;46.20;;;27.90;;
13868;SDS011;7004;48.206;16.402;2022-12-29T14:10:35;49.93;;;29.00;;
13868;SDS011;7004;48.206;16.402;2022-12-29T14:15:51;49.80;;;28.57;;
13868;SDS011;7004;48.206;16.402;2022-12-29T14:18:24;52.07;;;29.70;;
13868;SDS011;7004;48.206;16.402;2022-12-29T14:20:57;49.10;;;30.07;;
13868;SDS011;7004;48.206;16.402;2022-12-29T14:23:44;48.40;;;28.77;;
13868;SDS011;7004;48.206;16.402;2022-12-29T14:28:55;48.80;;;27.70;;
13868;SDS011;7004;48.206;16.402;2022-12-29T14:36:39;45.10;;;27.37;;
13868;SDS011;7004;48.206;16.402;2022-12-29T14:39:39;43.63;;;26.63;;
13868;SDS011;7004;48.206;16.402;2022-12-29T14:44:47;46.10;;;26.70;;
13868;SDS011;7004;48.206;16.402;2022-12-29T14:47:38;48.97;;;28.00;;
13868;SDS011;7004;48.206;16.402;2022-12-29T14:50:07;47.53;;;29.03;;
13868;SDS011;7004;48.206;16.402;2022-12-29T14:52:59;46.20;;;28.30;;
13868;SDS011;7004;48.206;16.402;2022-12-29T14:55:53;44.27;;;27.70;;
13868;SDS011;7004;48.206;16.402;2022-12-29T15:00:57;44.30;;;26.27;;
13868;SDS011;7004;48.206;16.402;2022-12-29T15:03:25;45.30;;;28.00;;
13868;SDS011;7004;48.206;16.402;2022-12-29T15:06:04;46.97;;;28.20;;
13868;SDS011;7004;48.206;16.402;2022-12-29T15:08:42;48.97;;;28.20;;
13868;SDS011;7004;48.206;16.402;2022-12-29T15:12:22;44.17;;;27.00;;
13868;SDS011;7004;48.206;16.402;2022-12-29T15:15:10;44.57;;;26.97;;
13868;SDS011;7004;48.206;16.402;2022-12-29T15:17:51;45.47;;;27.37;;
13868;SDS011;7004;48.206;16.402;2022-12-29T15:22:53;45.47;;;27.70;;
13868;SDS011;7004;48.206;16.402;2022-12-29T15:25:27;48.67;;;27.87;;
13868;SDS011;7004;48.206;16.402;2022-12-29T15:27:55;51.93;;;30.23;;
13868;SDS011;7004;48.206;16.402;2022-12-29T15:30:29;47.63;;;28.67;;
13868;SDS011;7004;48.206;16.402;2022-12-29T15:32:56;45.67;;;28.50;;
13868;SDS011;7004;48.206;16.402;2022-12-29T15:38:01;52.20;;;31.10;;
13868;SDS011;7004;48.206;16.402;2022-12-29T15:40:53;48.70;;;29.93;;
13868;SDS011;7004;48.206;16.402;2022-12-29T15:43:52;48.10;;;29.00;;
13868;SDS011;7004;48.206;16.402;2022-12-29T15:46:29;51.33;;;29.53;;
13868;SDS011;7004;48.206;16.402;2022-12-29T15:48:56;50.83;;;29.63;;
13868;SDS011;7004;48.206;16.402;2022-12-29T15:51:26;50.43;;;29.90;;
13868;SDS011;7004;48.206;16.402;2022-12-29T15:53:58;49.67;;;29.03;;
13868;SDS011;7004;48.206;16.402;2022-12-29T15:56:28;54.43;;;30.13;;
13868;SDS011;7004;48.206;16.402;2022-12-29T15:58:56;56.60;;;30.20;;
13868;SDS011;7004;48.206;16.402;2022-12-29T16:04:00;59.40;;;32.10;;
13868;SDS011;7004;48.206;16.402;2022-12-29T16:06:34;50.77;;;30.90;;
13868;SDS011;7004;48.206;16.402;2022-12-29T16:09:16;51.70;;;31.43;;
13868;SDS011;7004;48.206;16.402;2022-12-29T16:11:45;55.47;;;33.10;;
13868;SDS011;7004;48.206;16.402;2022-12-29T16:14:19;60.90;;;33.33;;
13868;SDS011;7004;48.206;16.402;2022-12-29T16:17:06;54.33;;;32.13;;
13868;SDS011;7004;48.206;16.402;2022-12-29T16:19:39;55.73;;;31.83;;
13868;SDS011;7004;48.206;16.402;2022-12-29T16:22:15;53.73;;;31.53;;
13868;SDS011;7004;48.206;16.402;2022-12-29T16:24:48;60.97;;;34.47;;
13868;SDS011;7004;48.206;16.402;2022-12-29T16:29:51;57.40;;;32.47;;
13868;SDS011;7004;48.206;16.402;2022-12-29T16:32:30;57.97;;;32.30;;
13868;SDS011;7004;48.206;16.402;2022-12-29T16:35:05;60.43;;;34.20;;
13868;SDS011;7004;48.206;16.402;2022-12-29T16:37:45;55.27;;;32.40;;
13868;SDS011;7004;48.206;16.402;2022-12-29T16:42:48;56.47;;;30.90;;
13868;SDS011;7004;48.206;16.402;2022-12-29T16:50:31;53.07;;;31.67;;
13868;SDS011;7004;48.206;16.402;2022-12-29T16:52:59;55.53;;;31.03;;
13868;SDS011;7004;48.206;16.402;2022-12-29T16:55:27;46.90;;;28.30;;
13868;SDS011;7004;48.206;16.402;2022-12-29T16:57:54;49.77;;;29.53;;
13868;SDS011;7004;48.206;16.402;2022-12-29T17:00:24;50.80;;;28.87;;
13868;SDS011;7004;48.206;16.402;2022-12-29T17:02:55;47.03;;;29.17;;
13868;SDS011;7004;48.206;16.402;2022-12-29T17:05:24;46.30;;;28.93;;
13868;SDS011;7004;48.206;16.402;2022-12-29T17:07:51;45.67;;;27.87;;
13868;SDS011;7004;48.206;16.402;2022-12-29T17:10:18;45.07;;;26.67;;
13868;SDS011;7004;48.206;16.402;2022-12-29T17:12:45;43.50;;;27.20;;
13868;SDS011;7004;48.206;16.402;2022-12-29T17:17:59;47.47;;;27.00;;
13868;SDS011;7004;48.206;16.402;2022-12-29T17:20:26;47.67;;;25.77;;